Bookmark and Share
Track history (hours):
 

Eurodam (Netherlands)

Last reported at 2014-Apr-24 11:31 UTC. Time now 2014-Apr-24 11:42 UTC.
Position N 43°44' E 007°26'.

Length 285 m; draft 8 m.

Type: Ship. MMSI: 245206000.

NotesDate/timePositionNaut miles runAvg speedWind from/ knotsBaromVisibWave heightAir tempDewpointWater temp
2014-Apr-24 11:31N 43°44' E 007°26'0 0.0
2014-Apr-24 10:33N 43°44' E 007°26'0 0.0
2014-Apr-24 09:31N 43°44' E 007°26'0 0.0
2014-Apr-24 06:05N 43°44' E 007°26'1 1.3
2014-Apr-24 05:33N 43°44' E 007°27'9 8.8
2014-Apr-24 04:33N 43°43' E 007°39'10 9.6
2014-Apr-24 03:34N 43°42' E 007°52'1010.0
2014-Apr-24 02:33N 43°41' E 008°06'1010.4
2014-Apr-24 01:33N 43°40' E 008°20'1010.3
2014-Apr-24 00:34N 43°39' E 008°34'1010.5
2014-Apr-23 23:34N 43°38' E 008°48'1110.7
2014-Apr-23 22:34N 43°37' E 009°03'1110.8
2014-Apr-23 21:34N 43°36' E 009°18'1110.9
2014-Apr-23 20:34N 43°34' E 009°33'1110.9
2014-Apr-23 19:34N 43°33' E 009°48'1010.1
2014-Apr-23 18:33N 43°32' E 010°01'4 6.7
2014-Apr-23 18:00N 43°30' E 010°06'715.3 260 / 191014.310.8 0.518.014.115.8
2014-Apr-23 17:32N 43°32' E 010°15'2 2.3
2014-Apr-23 16:32N 43°33' E 010°18'0 0.0
2014-Apr-23 15:31N 43°33' E 010°18'0 0.0
2014-Apr-23 14:31N 43°33' E 010°18'0 0.0
2014-Apr-23 13:32N 43°33' E 010°18'0 0.0
2014-Apr-23 12:32N 43°33' E 010°18'0 0.0
2014-Apr-23 11:32N 43°33' E 010°18'0 0.0
2014-Apr-23 10:31N 43°33' E 010°18'0 0.0
2014-Apr-23 09:31N 43°33' E 010°18'0 0.0
2014-Apr-23 08:28N 43°33' E 010°18'0 0.0
2014-Apr-23 07:30N 43°33' E 010°18'0 0.0
2014-Apr-23 06:30N 43°33' E 010°18'0 0.0
2014-Apr-23 05:33N 43°33' E 010°18'0 0.2
2014-Apr-23 04:33N 43°33' E 010°18'6 6.1
2014-Apr-23 03:34N 43°28' E 010°13'1110.9
2014-Apr-23 02:33N 43°18' E 010°07'1110.9
2014-Apr-23 01:33N 43°07' E 010°04'1111.0
2014-Apr-23 00:33N 42°57' E 009°60'1111.0
2014-Apr-22 23:33N 42°46' E 009°56'50 9.0
2014-Apr-22 18:00N 42°06' E 010°36'139 6.8 340 / 71013.1 5.4 17.015.015.5
2014-Apr-21 21:33N 40°38' E 012°59'1816.9
2014-Apr-21 20:28N 40°25' E 013°17'1717.1
2014-Apr-21 19:27N 40°13' E 013°33'5017.2
2014-Apr-21 16:31N 39°38' E 014°20'1717.2
2014-Apr-21 15:33N 39°26' E 014°35'1717.3
2014-Apr-21 14:32N 39°14' E 014°51'3019.7
2014-Apr-21 13:00N 38°48' E 015°12'2214.9 250 / 351006.410.8 2.518.014.916.0
2014-Apr-21 11:29N 38°32' E 015°32'1814.4
2014-Apr-21 10:13N 38°14' E 015°37'1116.8
2014-Apr-21 09:32N 38°03' E 015°36'2416.2
2014-Apr-21 08:04N 37°48' E 015°60'16916.8
2014-Apr-20 22:00N 37°00' E 019°24'7418.6 180 / 171011.710.8 18.015.316.0
2014-Apr-20 18:00N 36°42' E 020°54'7813.0 150 / 201014.110.8 0.519.015.916.4
2014-Apr-20 12:00N 36°30' E 022°30'84 4.5 190 / 211016.910.8 18.012.4
2014-Apr-19 17:14N 37°31' E 023°42'811.3
2014-Apr-19 16:33N 37°39' E 023°42'1211.7
2014-Apr-19 15:33N 37°50' E 023°36'7 5.7
2014-Apr-19 14:23N 37°56' E 023°38'0 0.0
2014-Apr-19 13:33N 37°56' E 023°38'0 0.0
2014-Apr-19 12:31N 37°56' E 023°38'0 0.0
2014-Apr-19 11:29N 37°56' E 023°38'0 0.0
2014-Apr-19 10:33N 37°56' E 023°38'0 0.0
2014-Apr-19 09:33N 37°56' E 023°38'0 0.0
2014-Apr-19 08:33N 37°56' E 023°38'0 0.0
2014-Apr-19 07:25N 37°56' E 023°38'0 0.0
2014-Apr-19 06:31N 37°56' E 023°38'0 0.0
2014-Apr-19 05:29N 37°56' E 023°38'0 0.0
2014-Apr-19 04:31N 37°56' E 023°38'0 0.2
2014-Apr-19 03:33N 37°56' E 023°38'7 7.1
2014-Apr-19 02:33N 37°50' E 023°40'3714.8
2014-Apr-19 00:03N 37°32' E 024°21'917.4
2014-Apr-18 23:33N 37°33' E 024°32'1917.7
2014-Apr-18 22:30N 37°34' E 024°56'1617.3
2014-Apr-18 21:33N 37°31' E 025°16'1717.3
2014-Apr-18 20:33N 37°39' E 025°35'37 1.9
2014-Apr-18 00:29N 37°36' E 026°22'1414.5
2014-Apr-17 23:33N 37°22' E 026°22'1515.3
2014-Apr-17 22:33N 37°09' E 026°30'1715.1
2014-Apr-17 21:24N 36°53' E 026°39'1315.3
2014-Apr-17 20:33N 36°41' E 026°45'15 0.6
2014-Apr-16 20:33N 36°27' E 026°35'1110.5
2014-Apr-16 19:33N 36°27' E 026°22'1110.9
2014-Apr-16 18:33N 36°27' E 026°09'4 6.3
2014-Apr-16 18:00N 36°24' E 026°06'817.2 180 / 151012.110.8 18.014.917.3
2014-Apr-16 17:33N 36°27' E 025°58'10 9.5
2014-Apr-16 16:33N 36°28' E 025°46'10 9.9
2014-Apr-16 15:33N 36°29' E 025°34'10 9.5
2014-Apr-16 14:33N 36°30' E 025°22'6 5.6
2014-Apr-16 13:33N 36°25' E 025°25'0 0.0
2014-Apr-16 12:32N 36°25' E 025°25'0 0.0
2014-Apr-16 11:32N 36°25' E 025°25'0 0.0
2014-Apr-16 10:33N 36°25' E 025°25'0 0.0
2014-Apr-16 09:32N 36°25' E 025°25'0 0.0
2014-Apr-16 08:32N 36°25' E 025°25'0 0.0
2014-Apr-16 07:33N 36°25' E 025°25'0 0.0
2014-Apr-16 06:33N 36°25' E 025°25'1 0.7
2014-Apr-16 05:33N 36°24' E 025°25'1 0.7
2014-Apr-16 04:33N 36°24' E 025°25'1 0.6
2014-Apr-16 03:33N 36°23' E 025°25'1313.3
2014-Apr-16 02:33N 36°23' E 025°08'1717.5
2014-Apr-16 01:33N 36°22' E 024°47'1817.5
2014-Apr-16 00:33N 36°22' E 024°25'1817.7
2014-Apr-15 23:33N 36°21' E 024°03'1817.7
2014-Apr-15 22:31N 36°21' E 023°40'1918.1
2014-Apr-15 21:28N 36°20' E 023°17'1717.7
2014-Apr-15 20:31N 36°24' E 022°56'9915.1
2014-Apr-15 14:00N 37°24' E 021°18'172 8.2 270 / 201013.527.0 0.519.211.516.7
2014-Apr-14 17:00N 37°42' E 017°42'5317.5 350 / 71017.310.8 0.516.012.215.8
2014-Apr-14 14:00N 37°48' E 016°36'3316.6 060 / 81017.810.8 0.515.410.615.7
2014-Apr-14 12:00N 37°48' E 015°54'   090 / 101019.110.8 16.011.016.0

Dump ship's entire track history

sailing weather and tide predictions

Eurodam — PHOS — position and weather